Terminal Aerodrome Forecast
Issued by NWS Mobile, AL

Home | Current Version | Previous Version | Text Only | Print | Product List | Glossary On
Versions: 1 2 3 4 5 6 7 8 9 10 11 12 13 14 15 16 17 18 19 20 21 22 23 24 25
000
FTUS44 KMOB 201100
TAFMOB
TAF
KMOB 201121Z 2012/2112 00000KT P6SM FEW015 SCT060 BKN250
     FM201500 23006KT P6SM VCTS SCT035CB SCT250
     FM210000 21006KT P6SM FEW250=

USA.gov is the U.S. government's official web portal to all federal, state and local government web resources and services.